sensor_id;sensor_type;location;lat;lon;timestamp;temperature;humidity
52187;DHT22;38161;53.020;6.598;2023-03-19T00:01:59;9.60;99.90
52187;DHT22;38161;53.020;6.598;2023-03-19T00:04:25;9.60;99.90
52187;DHT22;38161;53.020;6.598;2023-03-19T00:06:52;9.60;99.90
52187;DHT22;38161;53.020;6.598;2023-03-19T00:09:19;9.60;99.90
52187;DHT22;38161;53.020;6.598;2023-03-19T00:11:45;9.50;99.90
52187;DHT22;38161;53.020;6.598;2023-03-19T00:14:11;9.50;99.90
52187;DHT22;38161;53.020;6.598;2023-03-19T00:16:37;9.40;99.90
52187;DHT22;38161;53.020;6.598;2023-03-19T00:19:03;9.40;99.90
52187;DHT22;38161;53.020;6.598;2023-03-19T00:21:29;9.40;99.90
52187;DHT22;38161;53.020;6.598;2023-03-19T00:23:55;9.40;99.90
52187;DHT22;38161;53.020;6.598;2023-03-19T00:26:28;9.40;99.90
52187;DHT22;38161;53.020;6.598;2023-03-19T00:28:55;9.40;99.90
52187;DHT22;38161;53.020;6.598;2023-03-19T00:31:21;9.40;99.90
52187;DHT22;38161;53.020;6.598;2023-03-19T00:33:47;9.50;99.90
52187;DHT22;38161;53.020;6.598;2023-03-19T00:36:13;9.40;99.90
52187;DHT22;38161;53.020;6.598;2023-03-19T00:38:41;9.50;99.90
52187;DHT22;38161;53.020;6.598;2023-03-19T00:41:08;9.50;99.90
52187;DHT22;38161;53.020;6.598;2023-03-19T00:43:33;9.50;99.90
52187;DHT22;38161;53.020;6.598;2023-03-19T00:45:59;9.60;99.90
52187;DHT22;38161;53.020;6.598;2023-03-19T00:48:25;9.60;99.90
52187;DHT22;38161;53.020;6.598;2023-03-19T00:50:51;9.60;99.90
52187;DHT22;38161;53.020;6.598;2023-03-19T00:53:17;9.60;99.90
52187;DHT22;38161;53.020;6.598;2023-03-19T00:55:43;9.60;99.90
52187;DHT22;38161;53.020;6.598;2023-03-19T00:58:09;9.60;99.90
52187;DHT22;38161;53.020;6.598;2023-03-19T01:00:36;9.70;99.90
52187;DHT22;38161;53.020;6.598;2023-03-19T01:03:02;9.70;99.90
52187;DHT22;38161;53.020;6.598;2023-03-19T01:05:28;9.70;99.90
52187;DHT22;38161;53.020;6.598;2023-03-19T01:07:54;9.70;99.90
52187;DHT22;38161;53.020;6.598;2023-03-19T01:10:21;9.80;99.90
52187;DHT22;38161;53.020;6.598;2023-03-19T01:12:47;9.80;99.90
52187;DHT22;38161;53.020;6.598;2023-03-19T01:15:13;9.80;99.90
52187;DHT22;38161;53.020;6.598;2023-03-19T01:17:40;9.80;99.90
52187;DHT22;38161;53.020;6.598;2023-03-19T01:20:08;9.80;99.90
52187;DHT22;38161;53.020;6.598;2023-03-19T01:22:40;9.80;99.90
52187;DHT22;38161;53.020;6.598;2023-03-19T01:25:08;9.80;99.90
52187;DHT22;38161;53.020;6.598;2023-03-19T01:27:35;9.90;99.90
52187;DHT22;38161;53.020;6.598;2023-03-19T01:30:01;9.80;99.90
52187;DHT22;38161;53.020;6.598;2023-03-19T01:32:26;9.90;99.90
52187;DHT22;38161;53.020;6.598;2023-03-19T01:34:52;9.90;99.90
52187;DHT22;38161;53.020;6.598;2023-03-19T01:37:19;9.90;99.90
52187;DHT22;38161;53.020;6.598;2023-03-19T01:39:45;9.90;99.90
52187;DHT22;38161;53.020;6.598;2023-03-19T01:42:11;9.90;99.90
52187;DHT22;38161;53.020;6.598;2023-03-19T01:44:38;9.90;99.90
52187;DHT22;38161;53.020;6.598;2023-03-19T01:47:18;9.90;99.90
52187;DHT22;38161;53.020;6.598;2023-03-19T01:49:52;9.90;99.90
52187;DHT22;38161;53.020;6.598;2023-03-19T01:52:19;9.90;99.90
52187;DHT22;38161;53.020;6.598;2023-03-19T01:54:46;9.90;99.90
52187;DHT22;38161;53.020;6.598;2023-03-19T01:57:13;10.00;99.90
52187;DHT22;38161;53.020;6.598;2023-03-19T01:59:49;9.90;99.90
52187;DHT22;38161;53.020;6.598;2023-03-19T02:02:35;9.90;99.90
52187;DHT22;38161;53.020;6.598;2023-03-19T02:05:10;10.00;99.90
52187;DHT22;38161;53.020;6.598;2023-03-19T02:07:37;9.90;99.90
52187;DHT22;38161;53.020;6.598;2023-03-19T02:10:07;9.80;99.90
52187;DHT22;38161;53.020;6.598;2023-03-19T02:12:34;9.80;99.90
52187;DHT22;38161;53.020;6.598;2023-03-19T02:14:59;9.80;99.90
52187;DHT22;38161;53.020;6.598;2023-03-19T02:17:27;9.80;99.90
52187;DHT22;38161;53.020;6.598;2023-03-19T02:19:56;9.70;99.90
52187;DHT22;38161;53.020;6.598;2023-03-19T02:22:26;9.70;99.90
52187;DHT22;38161;53.020;6.598;2023-03-19T02:27:27;9.70;99.90
52187;DHT22;38161;53.020;6.598;2023-03-19T02:29:53;9.70;99.90
52187;DHT22;38161;53.020;6.598;2023-03-19T02:32:18;9.70;99.90
52187;DHT22;38161;53.020;6.598;2023-03-19T02:34:45;9.70;99.90
52187;DHT22;38161;53.020;6.598;2023-03-19T02:37:21;9.70;99.90
52187;DHT22;38161;53.020;6.598;2023-03-19T02:39:58;9.70;99.90
52187;DHT22;38161;53.020;6.598;2023-03-19T02:42:29;9.70;99.90
52187;DHT22;38161;53.020;6.598;2023-03-19T02:44:56;9.70;99.90
52187;DHT22;38161;53.020;6.598;2023-03-19T02:47:22;9.60;99.90
52187;DHT22;38161;53.020;6.598;2023-03-19T02:49:48;9.60;99.90
52187;DHT22;38161;53.020;6.598;2023-03-19T02:52:14;9.60;99.90
52187;DHT22;38161;53.020;6.598;2023-03-19T02:54:39;9.60;99.90
52187;DHT22;38161;53.020;6.598;2023-03-19T02:57:05;9.60;99.90
52187;DHT22;38161;53.020;6.598;2023-03-19T02:59:31;9.60;99.90
52187;DHT22;38161;53.020;6.598;2023-03-19T03:01:57;9.60;99.90
52187;DHT22;38161;53.020;6.598;2023-03-19T03:04:23;9.60;99.90
52187;DHT22;38161;53.020;6.598;2023-03-19T03:06:49;9.60;99.90
52187;DHT22;38161;53.020;6.598;2023-03-19T03:09:15;9.60;99.90
52187;DHT22;38161;53.020;6.598;2023-03-19T03:11:41;9.60;99.90
52187;DHT22;38161;53.020;6.598;2023-03-19T03:14:07;9.60;99.90
52187;DHT22;38161;53.020;6.598;2023-03-19T03:16:33;9.60;99.90
52187;DHT22;38161;53.020;6.598;2023-03-19T03:18:59;9.60;99.90
52187;DHT22;38161;53.020;6.598;2023-03-19T03:21:25;9.60;99.90
52187;DHT22;38161;53.020;6.598;2023-03-19T03:23:50;9.60;99.90
52187;DHT22;38161;53.020;6.598;2023-03-19T03:26:16;9.60;99.90
52187;DHT22;38161;53.020;6.598;2023-03-19T03:28:42;9.60;99.90
52187;DHT22;38161;53.020;6.598;2023-03-19T03:31:08;9.60;99.90
52187;DHT22;38161;53.020;6.598;2023-03-19T03:33:34;9.60;99.90
52187;DHT22;38161;53.020;6.598;2023-03-19T03:36:00;9.60;99.90
52187;DHT22;38161;53.020;6.598;2023-03-19T03:38:26;9.60;99.90
52187;DHT22;38161;53.020;6.598;2023-03-19T03:40:52;9.50;99.90
52187;DHT22;38161;53.020;6.598;2023-03-19T03:43:20;9.50;99.90
52187;DHT22;38161;53.020;6.598;2023-03-19T03:45:47;9.50;99.90
52187;DHT22;38161;53.020;6.598;2023-03-19T03:48:13;9.50;99.90
52187;DHT22;38161;53.020;6.598;2023-03-19T03:50:39;9.50;99.90
52187;DHT22;38161;53.020;6.598;2023-03-19T03:53:05;9.50;99.90
52187;DHT22;38161;53.020;6.598;2023-03-19T03:55:31;9.50;99.90
52187;DHT22;38161;53.020;6.598;2023-03-19T03:57:57;9.50;99.90
52187;DHT22;38161;53.020;6.598;2023-03-19T04:00:23;9.40;99.90
52187;DHT22;38161;53.020;6.598;2023-03-19T04:02:49;9.40;99.90
52187;DHT22;38161;53.020;6.598;2023-03-19T04:05:16;9.40;99.90
52187;DHT22;38161;53.020;6.598;2023-03-19T04:07:42;9.40;99.90
52187;DHT22;38161;53.020;6.598;2023-03-19T04:10:09;9.40;99.90
52187;DHT22;38161;53.020;6.598;2023-03-19T04:12:36;9.40;99.90
52187;DHT22;38161;53.020;6.598;2023-03-19T04:15:06;9.40;99.90
52187;DHT22;38161;53.020;6.598;2023-03-19T04:17:33;9.40;99.90
52187;DHT22;38161;53.020;6.598;2023-03-19T04:20:00;9.40;99.90
52187;DHT22;38161;53.020;6.598;2023-03-19T04:22:27;9.40;99.90
52187;DHT22;38161;53.020;6.598;2023-03-19T04:24:53;9.40;99.90
52187;DHT22;38161;53.020;6.598;2023-03-19T04:27:19;9.40;99.90
52187;DHT22;38161;53.020;6.598;2023-03-19T04:29:45;9.40;99.90
52187;DHT22;38161;53.020;6.598;2023-03-19T04:32:11;9.40;99.90
52187;DHT22;38161;53.020;6.598;2023-03-19T04:34:36;9.40;99.90
52187;DHT22;38161;53.020;6.598;2023-03-19T04:37:02;9.50;99.90
52187;DHT22;38161;53.020;6.598;2023-03-19T04:39:28;9.50;99.90
52187;DHT22;38161;53.020;6.598;2023-03-19T04:41:54;9.50;99.90
52187;DHT22;38161;53.020;6.598;2023-03-19T04:44:21;9.50;99.90
52187;DHT22;38161;53.020;6.598;2023-03-19T04:46:47;9.50;99.90
52187;DHT22;38161;53.020;6.598;2023-03-19T04:49:12;9.50;99.90
52187;DHT22;38161;53.020;6.598;2023-03-19T04:51:38;9.40;99.90
52187;DHT22;38161;53.020;6.598;2023-03-19T04:54:05;9.40;99.90
52187;DHT22;38161;53.020;6.598;2023-03-19T04:56:31;9.40;99.90
52187;DHT22;38161;53.020;6.598;2023-03-19T04:58:57;9.30;99.90
52187;DHT22;38161;53.020;6.598;2023-03-19T05:01:23;9.40;99.90
52187;DHT22;38161;53.020;6.598;2023-03-19T05:03:49;9.30;99.90
52187;DHT22;38161;53.020;6.598;2023-03-19T05:06:15;9.30;99.90
52187;DHT22;38161;53.020;6.598;2023-03-19T05:08:42;9.20;99.90
52187;DHT22;38161;53.020;6.598;2023-03-19T05:11:08;9.20;99.90
52187;DHT22;38161;53.020;6.598;2023-03-19T05:13:33;9.20;99.90
52187;DHT22;38161;53.020;6.598;2023-03-19T05:15:59;9.10;99.90
52187;DHT22;38161;53.020;6.598;2023-03-19T05:18:26;9.10;99.90
52187;DHT22;38161;53.020;6.598;2023-03-19T05:20:51;9.10;99.90
52187;DHT22;38161;53.020;6.598;2023-03-19T05:23:19;9.00;99.90
52187;DHT22;38161;53.020;6.598;2023-03-19T05:25:45;9.00;99.90
52187;DHT22;38161;53.020;6.598;2023-03-19T05:28:12;9.00;99.90
52187;DHT22;38161;53.020;6.598;2023-03-19T05:30:38;8.90;99.90
52187;DHT22;38161;53.020;6.598;2023-03-19T05:33:04;8.90;99.90
52187;DHT22;38161;53.020;6.598;2023-03-19T05:35:30;8.80;99.90
52187;DHT22;38161;53.020;6.598;2023-03-19T05:37:56;8.90;99.90
52187;DHT22;38161;53.020;6.598;2023-03-19T05:40:22;8.80;99.90
52187;DHT22;38161;53.020;6.598;2023-03-19T05:42:49;8.80;99.90
52187;DHT22;38161;53.020;6.598;2023-03-19T05:45:15;8.70;99.90
52187;DHT22;38161;53.020;6.598;2023-03-19T05:47:42;8.70;99.90
52187;DHT22;38161;53.020;6.598;2023-03-19T05:50:10;8.70;99.90
52187;DHT22;38161;53.020;6.598;2023-03-19T05:52:36;8.70;99.90
52187;DHT22;38161;53.020;6.598;2023-03-19T05:55:02;8.60;99.90
52187;DHT22;38161;53.020;6.598;2023-03-19T05:57:29;8.60;99.90
52187;DHT22;38161;53.020;6.598;2023-03-19T05:59:55;8.60;99.90
52187;DHT22;38161;53.020;6.598;2023-03-19T06:02:21;8.50;99.90
52187;DHT22;38161;53.020;6.598;2023-03-19T06:04:47;8.50;99.90
52187;DHT22;38161;53.020;6.598;2023-03-19T06:07:12;8.50;99.90
52187;DHT22;38161;53.020;6.598;2023-03-19T06:09:38;8.40;99.90
52187;DHT22;38161;53.020;6.598;2023-03-19T06:12:06;8.40;99.90
52187;DHT22;38161;53.020;6.598;2023-03-19T06:14:31;8.40;99.90
52187;DHT22;38161;53.020;6.598;2023-03-19T06:16:57;8.40;99.90
52187;DHT22;38161;53.020;6.598;2023-03-19T06:19:23;8.30;99.90
52187;DHT22;38161;53.020;6.598;2023-03-19T06:21:49;8.30;99.90
52187;DHT22;38161;53.020;6.598;2023-03-19T06:24:14;8.30;99.90
52187;DHT22;38161;53.020;6.598;2023-03-19T06:26:40;8.40;99.90
52187;DHT22;38161;53.020;6.598;2023-03-19T06:29:06;8.30;99.90
52187;DHT22;38161;53.020;6.598;2023-03-19T06:31:32;8.40;99.90
52187;DHT22;38161;53.020;6.598;2023-03-19T06:33:57;8.40;99.90
52187;DHT22;38161;53.020;6.598;2023-03-19T06:36:23;8.50;99.90
52187;DHT22;38161;53.020;6.598;2023-03-19T06:38:50;8.50;99.90
52187;DHT22;38161;53.020;6.598;2023-03-19T06:41:16;8.50;99.90
52187;DHT22;38161;53.020;6.598;2023-03-19T06:43:42;8.50;99.90
52187;DHT22;38161;53.020;6.598;2023-03-19T06:46:08;8.60;99.90
52187;DHT22;38161;53.020;6.598;2023-03-19T06:48:34;8.60;99.90
52187;DHT22;38161;53.020;6.598;2023-03-19T06:51:00;8.60;99.90
52187;DHT22;38161;53.020;6.598;2023-03-19T06:53:26;8.70;99.90
52187;DHT22;38161;53.020;6.598;2023-03-19T06:55:52;8.70;99.90
52187;DHT22;38161;53.020;6.598;2023-03-19T06:58:18;8.70;99.90
52187;DHT22;38161;53.020;6.598;2023-03-19T07:00:44;8.70;99.90
52187;DHT22;38161;53.020;6.598;2023-03-19T07:03:10;8.70;99.90
52187;DHT22;38161;53.020;6.598;2023-03-19T07:05:36;8.80;99.90
52187;DHT22;38161;53.020;6.598;2023-03-19T07:08:02;8.80;99.90
52187;DHT22;38161;53.020;6.598;2023-03-19T07:10:28;8.90;99.90
52187;DHT22;38161;53.020;6.598;2023-03-19T07:12:54;8.90;99.90
52187;DHT22;38161;53.020;6.598;2023-03-19T07:15:19;8.90;99.90
52187;DHT22;38161;53.020;6.598;2023-03-19T07:17:46;9.00;99.90
52187;DHT22;38161;53.020;6.598;2023-03-19T07:20:13;9.10;99.90
52187;DHT22;38161;53.020;6.598;2023-03-19T07:22:39;9.10;99.90
52187;DHT22;38161;53.020;6.598;2023-03-19T07:25:05;9.10;99.90
52187;DHT22;38161;53.020;6.598;2023-03-19T07:27:31;9.20;99.90
52187;DHT22;38161;53.020;6.598;2023-03-19T07:29:57;9.30;99.90
52187;DHT22;38161;53.020;6.598;2023-03-19T07:32:23;9.30;99.90
52187;DHT22;38161;53.020;6.598;2023-03-19T07:34:49;9.30;99.90
52187;DHT22;38161;53.020;6.598;2023-03-19T07:37:15;9.40;99.90
52187;DHT22;38161;53.020;6.598;2023-03-19T07:39:40;9.50;99.90
52187;DHT22;38161;53.020;6.598;2023-03-19T07:42:06;9.50;99.90
52187;DHT22;38161;53.020;6.598;2023-03-19T07:44:32;9.60;99.90
52187;DHT22;38161;53.020;6.598;2023-03-19T07:46:58;9.80;99.90
52187;DHT22;38161;53.020;6.598;2023-03-19T07:49:24;9.80;99.90
52187;DHT22;38161;53.020;6.598;2023-03-19T07:51:49;9.90;99.90
52187;DHT22;38161;53.020;6.598;2023-03-19T07:54:15;9.90;99.90
52187;DHT22;38161;53.020;6.598;2023-03-19T07:56:41;10.00;99.90
52187;DHT22;38161;53.020;6.598;2023-03-19T07:59:07;10.10;99.90
52187;DHT22;38161;53.020;6.598;2023-03-19T08:01:32;10.20;99.90
52187;DHT22;38161;53.020;6.598;2023-03-19T08:03:58;10.30;99.90
52187;DHT22;38161;53.020;6.598;2023-03-19T08:06:24;10.40;99.90
52187;DHT22;38161;53.020;6.598;2023-03-19T08:08:50;10.50;99.90
52187;DHT22;38161;53.020;6.598;2023-03-19T08:11:16;10.60;99.90
52187;DHT22;38161;53.020;6.598;2023-03-19T08:13:42;10.70;99.90
52187;DHT22;38161;53.020;6.598;2023-03-19T08:16:08;10.80;99.90
52187;DHT22;38161;53.020;6.598;2023-03-19T08:18:35;10.80;99.90
52187;DHT22;38161;53.020;6.598;2023-03-19T08:21:00;10.90;99.90
52187;DHT22;38161;53.020;6.598;2023-03-19T08:23:26;10.90;99.90
52187;DHT22;38161;53.020;6.598;2023-03-19T08:25:52;10.90;99.90
52187;DHT22;38161;53.020;6.598;2023-03-19T08:28:19;10.90;99.90
52187;DHT22;38161;53.020;6.598;2023-03-19T08:30:46;10.90;99.90
52187;DHT22;38161;53.020;6.598;2023-03-19T08:33:12;10.80;99.90
52187;DHT22;38161;53.020;6.598;2023-03-19T08:35:37;10.80;99.90
52187;DHT22;38161;53.020;6.598;2023-03-19T08:38:03;10.70;99.90
52187;DHT22;38161;53.020;6.598;2023-03-19T08:40:29;10.70;99.90
52187;DHT22;38161;53.020;6.598;2023-03-19T08:42:55;10.60;99.90
52187;DHT22;38161;53.020;6.598;2023-03-19T08:45:22;10.60;99.90
52187;DHT22;38161;53.020;6.598;2023-03-19T08:47:48;10.50;99.90
52187;DHT22;38161;53.020;6.598;2023-03-19T08:50:15;10.50;99.90
52187;DHT22;38161;53.020;6.598;2023-03-19T08:52:41;10.40;99.90
52187;DHT22;38161;53.020;6.598;2023-03-19T08:55:08;10.40;99.90
52187;DHT22;38161;53.020;6.598;2023-03-19T08:57:34;10.40;99.90
52187;DHT22;38161;53.020;6.598;2023-03-19T09:00:02;10.40;99.90
52187;DHT22;38161;53.020;6.598;2023-03-19T09:02:30;10.40;99.90
52187;DHT22;38161;53.020;6.598;2023-03-19T09:04:55;10.80;99.90
52187;DHT22;38161;53.020;6.598;2023-03-19T09:07:21;11.20;99.90
52187;DHT22;38161;53.020;6.598;2023-03-19T09:09:47;11.40;99.90
52187;DHT22;38161;53.020;6.598;2023-03-19T09:12:15;11.50;99.90
52187;DHT22;38161;53.020;6.598;2023-03-19T09:14:42;11.50;99.90
52187;DHT22;38161;53.020;6.598;2023-03-19T09:17:09;11.40;99.90
52187;DHT22;38161;53.020;6.598;2023-03-19T09:19:35;11.40;99.90
52187;DHT22;38161;53.020;6.598;2023-03-19T09:22:02;11.30;99.90
52187;DHT22;38161;53.020;6.598;2023-03-19T09:24:27;11.30;99.90
52187;DHT22;38161;53.020;6.598;2023-03-19T09:26:53;11.30;99.90
52187;DHT22;38161;53.020;6.598;2023-03-19T09:29:19;11.30;99.90
52187;DHT22;38161;53.020;6.598;2023-03-19T09:31:45;11.30;99.90
52187;DHT22;38161;53.020;6.598;2023-03-19T09:34:11;11.30;99.90
52187;DHT22;38161;53.020;6.598;2023-03-19T09:36:38;11.40;99.90
52187;DHT22;38161;53.020;6.598;2023-03-19T09:39:06;11.40;99.90
52187;DHT22;38161;53.020;6.598;2023-03-19T09:44:36;11.80;99.90
52187;DHT22;38161;53.020;6.598;2023-03-19T09:50:08;11.90;99.90
52187;DHT22;38161;53.020;6.598;2023-03-19T09:52:45;12.00;99.90
52187;DHT22;38161;53.020;6.598;2023-03-19T09:55:39;11.90;99.90
52187;DHT22;38161;53.020;6.598;2023-03-19T09:58:17;12.00;99.90
52187;DHT22;38161;53.020;6.598;2023-03-19T10:00:47;12.00;99.90
52187;DHT22;38161;53.020;6.598;2023-03-19T10:06:28;12.00;99.90
52187;DHT22;38161;53.020;6.598;2023-03-19T10:12:19;12.00;99.90
52187;DHT22;38161;53.020;6.598;2023-03-19T10:17:42;12.20;99.90
52187;DHT22;38161;53.020;6.598;2023-03-19T10:20:29;12.20;99.90
52187;DHT22;38161;53.020;6.598;2023-03-19T10:25:56;12.10;99.90
52187;DHT22;38161;53.020;6.598;2023-03-19T10:28:26;12.10;99.90
52187;DHT22;38161;53.020;6.598;2023-03-19T10:36:36;11.90;99.90
52187;DHT22;38161;53.020;6.598;2023-03-19T10:39:03;11.90;99.90
52187;DHT22;38161;53.020;6.598;2023-03-19T10:41:52;11.90;99.90
52187;DHT22;38161;53.020;6.598;2023-03-19T10:44:50;12.00;99.90
52187;DHT22;38161;53.020;6.598;2023-03-19T10:47:17;12.00;99.90
52187;DHT22;38161;53.020;6.598;2023-03-19T10:49:49;12.00;99.90
52187;DHT22;38161;53.020;6.598;2023-03-19T10:52:23;12.00;99.90
52187;DHT22;38161;53.020;6.598;2023-03-19T10:54:54;12.00;99.90
52187;DHT22;38161;53.020;6.598;2023-03-19T10:57:26;12.00;99.90
52187;DHT22;38161;53.020;6.598;2023-03-19T10:59:53;11.90;99.90
52187;DHT22;38161;53.020;6.598;2023-03-19T11:02:22;11.90;99.90
52187;DHT22;38161;53.020;6.598;2023-03-19T11:07:35;12.10;99.90
52187;DHT22;38161;53.020;6.598;2023-03-19T11:10:01;12.10;99.90
52187;DHT22;38161;53.020;6.598;2023-03-19T11:12:32;12.30;99.90
52187;DHT22;38161;53.020;6.598;2023-03-19T11:14:59;12.30;99.90
52187;DHT22;38161;53.020;6.598;2023-03-19T11:17:43;12.40;99.90
52187;DHT22;38161;53.020;6.598;2023-03-19T11:22:54;12.60;99.90
52187;DHT22;38161;53.020;6.598;2023-03-19T11:25:40;12.90;99.90
52187;DHT22;38161;53.020;6.598;2023-03-19T11:28:14;12.80;99.90
52187;DHT22;38161;53.020;6.598;2023-03-19T11:36:12;12.90;99.90
52187;DHT22;38161;53.020;6.598;2023-03-19T11:50:08;13.00;99.90
52187;DHT22;38161;53.020;6.598;2023-03-19T11:55:34;13.40;99.90
52187;DHT22;38161;53.020;6.598;2023-03-19T12:00:51;13.80;99.90
52187;DHT22;38161;53.020;6.598;2023-03-19T12:06:31;13.70;99.90
52187;DHT22;38161;53.020;6.598;2023-03-19T12:09:23;13.60;99.90
52187;DHT22;38161;53.020;6.598;2023-03-19T12:17:28;13.40;99.90
52187;DHT22;38161;53.020;6.598;2023-03-19T12:23:10;13.20;99.90
52187;DHT22;38161;53.020;6.598;2023-03-19T12:32:39;13.10;99.90
52187;DHT22;38161;53.020;6.598;2023-03-19T12:34:52;13.10;99.90
52187;DHT22;38161;53.020;6.598;2023-03-19T12:37:41;13.00;99.90
52187;DHT22;38161;53.020;6.598;2023-03-19T12:42:56;13.00;99.90
52187;DHT22;38161;53.020;6.598;2023-03-19T12:45:37;13.10;99.90
52187;DHT22;38161;53.020;6.598;2023-03-19T12:48:27;13.10;99.90
52187;DHT22;38161;53.020;6.598;2023-03-19T12:50:57;13.10;99.90
52187;DHT22;38161;53.020;6.598;2023-03-19T12:56:57;13.00;99.90
52187;DHT22;38161;53.020;6.598;2023-03-19T13:10:19;13.10;99.90
52187;DHT22;38161;53.020;6.598;2023-03-19T13:12:48;13.20;99.90
52187;DHT22;38161;53.020;6.598;2023-03-19T13:15:31;13.20;99.90
52187;DHT22;38161;53.020;6.598;2023-03-19T13:21:25;13.20;99.90
52187;DHT22;38161;53.020;6.598;2023-03-19T13:24:13;13.20;99.90
52187;DHT22;38161;53.020;6.598;2023-03-19T13:26:40;13.30;99.90
52187;DHT22;38161;53.020;6.598;2023-03-19T13:31:42;14.10;99.90
52187;DHT22;38161;53.020;6.598;2023-03-19T13:37:03;14.40;99.90
52187;DHT22;38161;53.020;6.598;2023-03-19T13:39:33;14.90;99.90
52187;DHT22;38161;53.020;6.598;2023-03-19T13:42:10;15.50;99.90
52187;DHT22;38161;53.020;6.598;2023-03-19T13:44:53;16.00;99.90
52187;DHT22;38161;53.020;6.598;2023-03-19T13:58:14;14.50;99.90
52187;DHT22;38161;53.020;6.598;2023-03-19T14:01:04;14.20;99.90
52187;DHT22;38161;53.020;6.598;2023-03-19T14:03:32;14.00;99.90
52187;DHT22;38161;53.020;6.598;2023-03-19T14:05:59;13.90;99.90
52187;DHT22;38161;53.020;6.598;2023-03-19T14:08:41;13.90;99.90
52187;DHT22;38161;53.020;6.598;2023-03-19T14:11:08;13.80;99.90
52187;DHT22;38161;53.020;6.598;2023-03-19T14:13:46;13.80;99.90
52187;DHT22;38161;53.020;6.598;2023-03-19T14:16:23;13.90;99.90
52187;DHT22;38161;53.020;6.598;2023-03-19T14:18:55;13.90;99.90
52187;DHT22;38161;53.020;6.598;2023-03-19T14:21:34;13.80;99.90
52187;DHT22;38161;53.020;6.598;2023-03-19T14:27:01;13.90;99.90
52187;DHT22;38161;53.020;6.598;2023-03-19T14:29:29;13.80;99.90
52187;DHT22;38161;53.020;6.598;2023-03-19T14:32:05;13.80;99.90
52187;DHT22;38161;53.020;6.598;2023-03-19T14:34:35;13.90;99.90
52187;DHT22;38161;53.020;6.598;2023-03-19T14:40:22;13.70;99.90
52187;DHT22;38161;53.020;6.598;2023-03-19T14:43:15;13.60;99.90
52187;DHT22;38161;53.020;6.598;2023-03-19T14:45:58;13.50;99.90
52187;DHT22;38161;53.020;6.598;2023-03-19T14:56:46;13.20;99.90
52187;DHT22;38161;53.020;6.598;2023-03-19T14:59:12;13.10;99.90
52187;DHT22;38161;53.020;6.598;2023-03-19T15:01:48;13.00;99.90
52187;DHT22;38161;53.020;6.598;2023-03-19T15:04:17;12.90;99.90
52187;DHT22;38161;53.020;6.598;2023-03-19T15:06:50;12.80;99.90
52187;DHT22;38161;53.020;6.598;2023-03-19T15:09:29;12.70;99.90
52187;DHT22;38161;53.020;6.598;2023-03-19T15:17:27;12.50;99.90
52187;DHT22;38161;53.020;6.598;2023-03-19T15:19:55;12.50;99.90
52187;DHT22;38161;53.020;6.598;2023-03-19T15:22:29;12.40;99.90
52187;DHT22;38161;53.020;6.598;2023-03-19T15:25:11;12.40;99.90
52187;DHT22;38161;53.020;6.598;2023-03-19T15:27:37;12.30;99.90
52187;DHT22;38161;53.020;6.598;2023-03-19T15:30:19;12.20;99.90
52187;DHT22;38161;53.020;6.598;2023-03-19T15:32:46;12.10;99.90
52187;DHT22;38161;53.020;6.598;2023-03-19T15:35:11;12.00;99.90
52187;DHT22;38161;53.020;6.598;2023-03-19T15:37:46;11.90;99.90
52187;DHT22;38161;53.020;6.598;2023-03-19T15:40:15;11.90;99.90
52187;DHT22;38161;53.020;6.598;2023-03-19T15:42:45;11.80;99.90
52187;DHT22;38161;53.020;6.598;2023-03-19T15:45:13;11.80;99.90
52187;DHT22;38161;53.020;6.598;2023-03-19T15:47:50;11.80;99.90
52187;DHT22;38161;53.020;6.598;2023-03-19T15:50:19;11.70;99.90
52187;DHT22;38161;53.020;6.598;2023-03-19T15:52:50;11.60;99.90
52187;DHT22;38161;53.020;6.598;2023-03-19T15:55:17;11.50;99.90
52187;DHT22;38161;53.020;6.598;2023-03-19T15:57:47;11.50;99.90
52187;DHT22;38161;53.020;6.598;2023-03-19T16:00:14;11.40;99.90
52187;DHT22;38161;53.020;6.598;2023-03-19T16:02:42;11.40;99.90
52187;DHT22;38161;53.020;6.598;2023-03-19T16:05:37;11.40;99.90
52187;DHT22;38161;53.020;6.598;2023-03-19T16:08:26;11.30;99.90
52187;DHT22;38161;53.020;6.598;2023-03-19T16:10:53;11.30;99.90
52187;DHT22;38161;53.020;6.598;2023-03-19T16:18:55;11.30;99.90
52187;DHT22;38161;53.020;6.598;2023-03-19T16:21:37;11.20;99.90
52187;DHT22;38161;53.020;6.598;2023-03-19T16:24:12;11.10;99.90
52187;DHT22;38161;53.020;6.598;2023-03-19T16:26:41;11.10;99.90
52187;DHT22;38161;53.020;6.598;2023-03-19T16:29:18;11.00;99.90
52187;DHT22;38161;53.020;6.598;2023-03-19T16:31:47;11.00;99.90
52187;DHT22;38161;53.020;6.598;2023-03-19T16:34:38;11.00;99.90
52187;DHT22;38161;53.020;6.598;2023-03-19T16:37:24;11.00;99.90
52187;DHT22;38161;53.020;6.598;2023-03-19T16:39:55;10.90;99.90
52187;DHT22;38161;53.020;6.598;2023-03-19T16:44:56;10.90;99.90
52187;DHT22;38161;53.020;6.598;2023-03-19T16:47:26;10.90;99.90
52187;DHT22;38161;53.020;6.598;2023-03-19T16:49:52;10.90;99.90
52187;DHT22;38161;53.020;6.598;2023-03-19T16:52:19;10.90;99.90
52187;DHT22;38161;53.020;6.598;2023-03-19T16:54:46;10.90;99.90
52187;DHT22;38161;53.020;6.598;2023-03-19T16:57:14;10.80;99.90
52187;DHT22;38161;53.020;6.598;2023-03-19T16:59:41;10.80;99.90
52187;DHT22;38161;53.020;6.598;2023-03-19T17:02:15;10.80;99.90
52187;DHT22;38161;53.020;6.598;2023-03-19T17:04:41;10.80;99.90
52187;DHT22;38161;53.020;6.598;2023-03-19T17:07:07;10.80;99.90
52187;DHT22;38161;53.020;6.598;2023-03-19T17:09:33;10.80;99.90
52187;DHT22;38161;53.020;6.598;2023-03-19T17:11:59;10.80;99.90
52187;DHT22;38161;53.020;6.598;2023-03-19T17:14:26;10.80;99.90
52187;DHT22;38161;53.020;6.598;2023-03-19T17:16:52;10.80;99.90
52187;DHT22;38161;53.020;6.598;2023-03-19T17:19:39;10.80;99.90
52187;DHT22;38161;53.020;6.598;2023-03-19T17:22:07;10.90;99.90
52187;DHT22;38161;53.020;6.598;2023-03-19T17:24:34;10.80;99.90
52187;DHT22;38161;53.020;6.598;2023-03-19T17:27:01;10.80;99.90
52187;DHT22;38161;53.020;6.598;2023-03-19T17:29:28;10.80;99.90
52187;DHT22;38161;53.020;6.598;2023-03-19T17:31:56;10.80;99.90
52187;DHT22;38161;53.020;6.598;2023-03-19T17:34:24;10.80;99.90
52187;DHT22;38161;53.020;6.598;2023-03-19T17:36:53;10.80;99.90
52187;DHT22;38161;53.020;6.598;2023-03-19T17:39:21;10.70;99.90
52187;DHT22;38161;53.020;6.598;2023-03-19T17:41:48;10.70;99.90
52187;DHT22;38161;53.020;6.598;2023-03-19T17:44:13;10.70;99.90
52187;DHT22;38161;53.020;6.598;2023-03-19T17:46:51;10.70;99.90
52187;DHT22;38161;53.020;6.598;2023-03-19T17:49:26;10.70;99.90
52187;DHT22;38161;53.020;6.598;2023-03-19T17:51:58;10.60;99.90
52187;DHT22;38161;53.020;6.598;2023-03-19T17:54:25;10.60;99.90
52187;DHT22;38161;53.020;6.598;2023-03-19T17:56:52;10.60;99.90
52187;DHT22;38161;53.020;6.598;2023-03-19T17:59:18;10.60;99.90
52187;DHT22;38161;53.020;6.598;2023-03-19T18:01:44;10.60;99.90
52187;DHT22;38161;53.020;6.598;2023-03-19T18:04:17;10.60;99.90
52187;DHT22;38161;53.020;6.598;2023-03-19T18:06:45;10.60;99.90